sensor_id;sensor_type;location;lat;lon;timestamp;temperature;humidity
3256;DHT22;1640;48.504;9.224;2024-01-15T00:01:51;-1.50;48.30
3256;DHT22;1640;48.504;9.224;2024-01-15T00:04:18;-1.50;49.50
3256;DHT22;1640;48.504;9.224;2024-01-15T00:06:48;-1.40;48.70
3256;DHT22;1640;48.504;9.224;2024-01-15T00:09:16;-1.30;50.10
3256;DHT22;1640;48.504;9.224;2024-01-15T00:11:43;-1.30;49.40
3256;DHT22;1640;48.504;9.224;2024-01-15T00:14:11;-1.30;48.90
3256;DHT22;1640;48.504;9.224;2024-01-15T00:16:40;-1.30;49.30
3256;DHT22;1640;48.504;9.224;2024-01-15T00:19:08;-1.20;47.90
3256;DHT22;1640;48.504;9.224;2024-01-15T00:21:35;-1.20;47.50
3256;DHT22;1640;48.504;9.224;2024-01-15T00:24:04;-1.20;47.40
3256;DHT22;1640;48.504;9.224;2024-01-15T00:26:32;-1.20;44.70
3256;DHT22;1640;48.504;9.224;2024-01-15T00:28:59;-1.20;46.60
3256;DHT22;1640;48.504;9.224;2024-01-15T00:31:27;-1.20;45.30
3256;DHT22;1640;48.504;9.224;2024-01-15T00:33:56;-1.10;46.60
3256;DHT22;1640;48.504;9.224;2024-01-15T00:36:23;-1.20;44.80
3256;DHT22;1640;48.504;9.224;2024-01-15T00:38:51;-1.00;46.00
3256;DHT22;1640;48.504;9.224;2024-01-15T00:41:20;-1.10;49.00
3256;DHT22;1640;48.504;9.224;2024-01-15T00:43:47;-1.10;47.90
3256;DHT22;1640;48.504;9.224;2024-01-15T00:46:15;-1.10;47.50
3256;DHT22;1640;48.504;9.224;2024-01-15T00:48:43;-1.10;48.70
3256;DHT22;1640;48.504;9.224;2024-01-15T00:51:11;-1.10;48.60
3256;DHT22;1640;48.504;9.224;2024-01-15T00:53:38;-1.10;49.50
3256;DHT22;1640;48.504;9.224;2024-01-15T00:56:06;-1.10;50.40
3256;DHT22;1640;48.504;9.224;2024-01-15T00:58:35;-1.00;49.10
3256;DHT22;1640;48.504;9.224;2024-01-15T01:01:02;-1.00;49.30
3256;DHT22;1640;48.504;9.224;2024-01-15T01:03:30;-1.10;51.00
3256;DHT22;1640;48.504;9.224;2024-01-15T01:05:57;-1.10;50.80
3256;DHT22;1640;48.504;9.224;2024-01-15T01:08:24;-1.00;52.70
3256;DHT22;1640;48.504;9.224;2024-01-15T01:10:52;-1.00;51.40
3256;DHT22;1640;48.504;9.224;2024-01-15T01:13:19;-1.00;53.20
3256;DHT22;1640;48.504;9.224;2024-01-15T01:15:48;-1.00;54.00
3256;DHT22;1640;48.504;9.224;2024-01-15T01:18:15;-0.90;53.60
3256;DHT22;1640;48.504;9.224;2024-01-15T01:20:43;-0.90;53.30
3256;DHT22;1640;48.504;9.224;2024-01-15T01:23:10;-0.80;55.00
3256;DHT22;1640;48.504;9.224;2024-01-15T01:25:38;-0.80;55.60
3256;DHT22;1640;48.504;9.224;2024-01-15T01:28:05;-0.80;55.90
3256;DHT22;1640;48.504;9.224;2024-01-15T01:30:33;-0.80;53.70
3256;DHT22;1640;48.504;9.224;2024-01-15T01:33:02;-0.80;54.40
3256;DHT22;1640;48.504;9.224;2024-01-15T01:35:29;-0.90;52.00
3256;DHT22;1640;48.504;9.224;2024-01-15T01:37:56;-0.80;51.80
3256;DHT22;1640;48.504;9.224;2024-01-15T01:40:24;-0.90;50.90
3256;DHT22;1640;48.504;9.224;2024-01-15T01:42:51;-0.90;49.40
3256;DHT22;1640;48.504;9.224;2024-01-15T01:45:19;-0.90;50.10
3256;DHT22;1640;48.504;9.224;2024-01-15T01:47:46;-0.90;50.50
3256;DHT22;1640;48.504;9.224;2024-01-15T01:50:15;-0.90;49.40
3256;DHT22;1640;48.504;9.224;2024-01-15T01:52:43;-0.90;48.90
3256;DHT22;1640;48.504;9.224;2024-01-15T01:55:11;-0.90;48.00
3256;DHT22;1640;48.504;9.224;2024-01-15T01:57:40;-0.90;47.10
3256;DHT22;1640;48.504;9.224;2024-01-15T02:00:08;-0.90;46.60
3256;DHT22;1640;48.504;9.224;2024-01-15T02:02:36;-0.90;48.00
3256;DHT22;1640;48.504;9.224;2024-01-15T02:05:04;-0.90;47.80
3256;DHT22;1640;48.504;9.224;2024-01-15T02:07:34;-0.90;46.80
3256;DHT22;1640;48.504;9.224;2024-01-15T02:10:03;-0.90;46.30
3256;DHT22;1640;48.504;9.224;2024-01-15T02:12:32;-0.90;45.20
3256;DHT22;1640;48.504;9.224;2024-01-15T02:14:59;-1.00;45.50
3256;DHT22;1640;48.504;9.224;2024-01-15T02:17:27;-0.90;43.00
3256;DHT22;1640;48.504;9.224;2024-01-15T02:19:54;-0.80;44.90
3256;DHT22;1640;48.504;9.224;2024-01-15T02:22:22;-0.80;44.40
3256;DHT22;1640;48.504;9.224;2024-01-15T02:24:51;-0.80;44.80
3256;DHT22;1640;48.504;9.224;2024-01-15T02:27:19;-0.80;44.70
3256;DHT22;1640;48.504;9.224;2024-01-15T02:29:48;-0.80;45.20
3256;DHT22;1640;48.504;9.224;2024-01-15T02:32:15;-0.80;42.90
3256;DHT22;1640;48.504;9.224;2024-01-15T02:34:43;-0.70;44.90
3256;DHT22;1640;48.504;9.224;2024-01-15T02:37:10;-0.70;46.10
3256;DHT22;1640;48.504;9.224;2024-01-15T02:39:38;-0.70;45.90
3256;DHT22;1640;48.504;9.224;2024-01-15T02:42:07;-0.70;48.00
3256;DHT22;1640;48.504;9.224;2024-01-15T02:44:34;-0.70;46.60
3256;DHT22;1640;48.504;9.224;2024-01-15T02:47:02;-0.80;45.50
3256;DHT22;1640;48.504;9.224;2024-01-15T02:49:29;-0.90;43.00
3256;DHT22;1640;48.504;9.224;2024-01-15T02:51:58;-0.90;39.50
3256;DHT22;1640;48.504;9.224;2024-01-15T02:54:25;-1.00;40.20
3256;DHT22;1640;48.504;9.224;2024-01-15T02:56:53;-0.90;39.50
3256;DHT22;1640;48.504;9.224;2024-01-15T02:59:22;-0.90;37.70
3256;DHT22;1640;48.504;9.224;2024-01-15T03:01:49;-1.00;38.00
3256;DHT22;1640;48.504;9.224;2024-01-15T03:04:17;-1.00;37.20
3256;DHT22;1640;48.504;9.224;2024-01-15T03:06:44;-1.00;34.50
3256;DHT22;1640;48.504;9.224;2024-01-15T03:09:12;-1.00;33.70
3256;DHT22;1640;48.504;9.224;2024-01-15T03:11:40;-1.00;33.50
3256;DHT22;1640;48.504;9.224;2024-01-15T03:14:08;-1.00;33.00
3256;DHT22;1640;48.504;9.224;2024-01-15T03:16:36;-1.00;34.90
3256;DHT22;1640;48.504;9.224;2024-01-15T03:19:04;-1.00;35.40
3256;DHT22;1640;48.504;9.224;2024-01-15T03:21:31;-1.00;35.30
3256;DHT22;1640;48.504;9.224;2024-01-15T03:23:59;-1.00;36.40
3256;DHT22;1640;48.504;9.224;2024-01-15T03:26:26;-1.00;37.70
3256;DHT22;1640;48.504;9.224;2024-01-15T03:28:53;-1.00;37.20
3256;DHT22;1640;48.504;9.224;2024-01-15T03:31:21;-1.00;37.10
3256;DHT22;1640;48.504;9.224;2024-01-15T03:33:50;-1.00;38.00
3256;DHT22;1640;48.504;9.224;2024-01-15T03:36:17;-0.90;36.40
3256;DHT22;1640;48.504;9.224;2024-01-15T03:38:45;-0.90;37.90
3256;DHT22;1640;48.504;9.224;2024-01-15T03:41:12;-0.90;37.90
3256;DHT22;1640;48.504;9.224;2024-01-15T03:43:42;-0.90;36.60
3256;DHT22;1640;48.504;9.224;2024-01-15T03:46:10;-0.90;34.90
3256;DHT22;1640;48.504;9.224;2024-01-15T03:48:37;-0.90;33.10
3256;DHT22;1640;48.504;9.224;2024-01-15T03:51:06;-0.90;31.50
3256;DHT22;1640;48.504;9.224;2024-01-15T03:53:33;-0.90;31.40
3256;DHT22;1640;48.504;9.224;2024-01-15T03:56:01;-0.90;31.20
3256;DHT22;1640;48.504;9.224;2024-01-15T03:58:28;-0.80;30.40
3256;DHT22;1640;48.504;9.224;2024-01-15T04:00:55;-0.80;28.80
3256;DHT22;1640;48.504;9.224;2024-01-15T04:03:23;-0.80;27.60
3256;DHT22;1640;48.504;9.224;2024-01-15T04:05:50;-0.70;28.60
3256;DHT22;1640;48.504;9.224;2024-01-15T04:08:20;-0.70;28.00
3256;DHT22;1640;48.504;9.224;2024-01-15T04:10:47;-0.70;26.20
3256;DHT22;1640;48.504;9.224;2024-01-15T04:13:15;-0.70;24.20
3256;DHT22;1640;48.504;9.224;2024-01-15T04:15:42;-0.70;24.80
3256;DHT22;1640;48.504;9.224;2024-01-15T04:18:10;-0.70;24.10
3256;DHT22;1640;48.504;9.224;2024-01-15T04:20:37;-0.70;25.10
3256;DHT22;1640;48.504;9.224;2024-01-15T04:23:05;-0.70;23.90
3256;DHT22;1640;48.504;9.224;2024-01-15T04:25:33;-0.60;25.40
3256;DHT22;1640;48.504;9.224;2024-01-15T04:28:01;-0.60;26.00
3256;DHT22;1640;48.504;9.224;2024-01-15T04:30:28;-0.60;23.30
3256;DHT22;1640;48.504;9.224;2024-01-15T04:32:56;-0.70;24.70
3256;DHT22;1640;48.504;9.224;2024-01-15T04:35:23;-0.70;23.30
3256;DHT22;1640;48.504;9.224;2024-01-15T04:37:51;-0.70;22.80
3256;DHT22;1640;48.504;9.224;2024-01-15T04:40:19;-0.70;21.20
3256;DHT22;1640;48.504;9.224;2024-01-15T04:42:47;-0.70;18.60
3256;DHT22;1640;48.504;9.224;2024-01-15T04:45:15;-0.70;18.90
3256;DHT22;1640;48.504;9.224;2024-01-15T04:47:44;-0.70;18.40
3256;DHT22;1640;48.504;9.224;2024-01-15T04:50:11;-0.70;16.90
3256;DHT22;1640;48.504;9.224;2024-01-15T04:52:39;-0.60;16.60
3256;DHT22;1640;48.504;9.224;2024-01-15T04:55:07;-0.60;17.60
3256;DHT22;1640;48.504;9.224;2024-01-15T04:57:34;-0.60;17.80
3256;DHT22;1640;48.504;9.224;2024-01-15T05:00:04;-0.60;16.70
3256;DHT22;1640;48.504;9.224;2024-01-15T05:02:32;-0.70;15.30
3256;DHT22;1640;48.504;9.224;2024-01-15T05:04:59;-0.80;10.40
3256;DHT22;1640;48.504;9.224;2024-01-15T05:07:27;-0.90;7.60
3256;DHT22;1640;48.504;9.224;2024-01-15T05:09:54;-1.00;2.70
3256;DHT22;1640;48.504;9.224;2024-01-15T05:12:21;-1.00;99.90
3256;DHT22;1640;48.504;9.224;2024-01-15T05:14:49;-1.00;99.90
3256;DHT22;1640;48.504;9.224;2024-01-15T05:17:18;-0.90;99.90
3256;DHT22;1640;48.504;9.224;2024-01-15T05:19:45;-0.90;99.90
3256;DHT22;1640;48.504;9.224;2024-01-15T05:22:12;-0.90;99.90
3256;DHT22;1640;48.504;9.224;2024-01-15T05:24:40;-0.90;99.90
3256;DHT22;1640;48.504;9.224;2024-01-15T05:27:07;-0.80;99.90
3256;DHT22;1640;48.504;9.224;2024-01-15T05:29:34;-0.80;99.90
3256;DHT22;1640;48.504;9.224;2024-01-15T05:32:01;-0.70;99.90
3256;DHT22;1640;48.504;9.224;2024-01-15T05:34:30;-0.70;99.90
3256;DHT22;1640;48.504;9.224;2024-01-15T05:36:58;-0.80;99.90
3256;DHT22;1640;48.504;9.224;2024-01-15T05:39:25;-0.80;99.90
3256;DHT22;1640;48.504;9.224;2024-01-15T05:41:52;-0.80;99.90
3256;DHT22;1640;48.504;9.224;2024-01-15T05:44:20;-0.80;99.90
3256;DHT22;1640;48.504;9.224;2024-01-15T05:46:47;-0.70;99.90
3256;DHT22;1640;48.504;9.224;2024-01-15T05:49:15;-0.70;99.90
3256;DHT22;1640;48.504;9.224;2024-01-15T05:51:44;-0.70;0.70
3256;DHT22;1640;48.504;9.224;2024-01-15T05:54:11;-0.70;1.00
3256;DHT22;1640;48.504;9.224;2024-01-15T05:56:39;-0.60;1.20
3256;DHT22;1640;48.504;9.224;2024-01-15T05:59:06;-0.60;1.30
3256;DHT22;1640;48.504;9.224;2024-01-15T06:01:34;-0.60;3.50
3256;DHT22;1640;48.504;9.224;2024-01-15T06:04:01;-0.60;3.90
3256;DHT22;1640;48.504;9.224;2024-01-15T06:06:29;-0.60;5.00
3256;DHT22;1640;48.504;9.224;2024-01-15T06:08:58;-0.60;5.50
3256;DHT22;1640;48.504;9.224;2024-01-15T06:11:31;-0.60;7.20
3256;DHT22;1640;48.504;9.224;2024-01-15T06:14:00;-0.60;6.90
3256;DHT22;1640;48.504;9.224;2024-01-15T06:16:28;-0.50;7.30
3256;DHT22;1640;48.504;9.224;2024-01-15T06:18:56;-0.60;7.60
3256;DHT22;1640;48.504;9.224;2024-01-15T06:21:23;-0.60;5.50
3256;DHT22;1640;48.504;9.224;2024-01-15T06:23:51;-0.60;2.50
3256;DHT22;1640;48.504;9.224;2024-01-15T06:26:21;-0.60;4.40
3256;DHT22;1640;48.504;9.224;2024-01-15T06:28:48;-0.60;6.60
3256;DHT22;1640;48.504;9.224;2024-01-15T06:31:16;-0.60;5.40
3256;DHT22;1640;48.504;9.224;2024-01-15T06:33:43;-0.60;5.60
3256;DHT22;1640;48.504;9.224;2024-01-15T06:36:13;-0.70;4.60
3256;DHT22;1640;48.504;9.224;2024-01-15T06:38:43;-0.60;4.20
3256;DHT22;1640;48.504;9.224;2024-01-15T06:41:11;-0.70;7.50
3256;DHT22;1640;48.504;9.224;2024-01-15T06:43:40;-0.70;8.40
3256;DHT22;1640;48.504;9.224;2024-01-15T06:46:07;-0.70;9.40
3256;DHT22;1640;48.504;9.224;2024-01-15T06:48:35;-0.70;9.50
3256;DHT22;1640;48.504;9.224;2024-01-15T06:51:03;-0.70;9.30
3256;DHT22;1640;48.504;9.224;2024-01-15T06:53:30;-0.70;11.80
3256;DHT22;1640;48.504;9.224;2024-01-15T06:55:57;-0.60;14.10
3256;DHT22;1640;48.504;9.224;2024-01-15T06:58:28;-0.70;15.70
3256;DHT22;1640;48.504;9.224;2024-01-15T07:00:57;-0.70;15.80
3256;DHT22;1640;48.504;9.224;2024-01-15T07:03:25;-0.60;18.10
3256;DHT22;1640;48.504;9.224;2024-01-15T07:05:52;-0.70;17.60
3256;DHT22;1640;48.504;9.224;2024-01-15T07:08:20;-0.60;18.60
3256;DHT22;1640;48.504;9.224;2024-01-15T07:10:47;-0.70;20.20
3256;DHT22;1640;48.504;9.224;2024-01-15T07:13:14;-0.60;21.90
3256;DHT22;1640;48.504;9.224;2024-01-15T07:15:42;-0.70;21.60
3256;DHT22;1640;48.504;9.224;2024-01-15T07:18:11;-0.60;24.50
3256;DHT22;1640;48.504;9.224;2024-01-15T07:20:38;-0.50;24.40
3256;DHT22;1640;48.504;9.224;2024-01-15T07:23:06;-0.50;30.80
3256;DHT22;1640;48.504;9.224;2024-01-15T07:25:34;-0.50;29.20
3256;DHT22;1640;48.504;9.224;2024-01-15T07:28:01;-0.40;33.00
3256;DHT22;1640;48.504;9.224;2024-01-15T07:30:29;-0.40;34.90
3256;DHT22;1640;48.504;9.224;2024-01-15T07:32:57;-0.40;36.80
3256;DHT22;1640;48.504;9.224;2024-01-15T07:35:26;-0.30;37.50
3256;DHT22;1640;48.504;9.224;2024-01-15T07:37:53;-0.30;44.10
3256;DHT22;1640;48.504;9.224;2024-01-15T07:40:20;-0.30;48.20
3256;DHT22;1640;48.504;9.224;2024-01-15T07:42:48;-0.30;50.10
3256;DHT22;1640;48.504;9.224;2024-01-15T07:45:15;-0.30;51.60
3256;DHT22;1640;48.504;9.224;2024-01-15T07:47:43;-0.20;53.70
3256;DHT22;1640;48.504;9.224;2024-01-15T07:50:11;-0.10;39.80
3256;DHT22;1640;48.504;9.224;2024-01-15T07:52:40;-0.10;55.10
3256;DHT22;1640;48.504;9.224;2024-01-15T07:55:08;-0.10;58.50
3256;DHT22;1640;48.504;9.224;2024-01-15T07:57:35;0.10;61.40
3256;DHT22;1640;48.504;9.224;2024-01-15T08:00:04;0.10;65.70
3256;DHT22;1640;48.504;9.224;2024-01-15T08:02:32;0.20;64.70
3256;DHT22;1640;48.504;9.224;2024-01-15T08:05:00;0.20;65.50
3256;DHT22;1640;48.504;9.224;2024-01-15T08:07:27;0.30;67.30
3256;DHT22;1640;48.504;9.224;2024-01-15T08:09:56;0.30;68.90
3256;DHT22;1640;48.504;9.224;2024-01-15T08:12:24;0.30;69.90
3256;DHT22;1640;48.504;9.224;2024-01-15T08:14:52;0.20;71.20
3256;DHT22;1640;48.504;9.224;2024-01-15T08:17:20;0.30;74.40
3256;DHT22;1640;48.504;9.224;2024-01-15T08:19:47;0.40;75.50
3256;DHT22;1640;48.504;9.224;2024-01-15T08:22:15;0.40;76.10
3256;DHT22;1640;48.504;9.224;2024-01-15T08:24:44;0.40;75.50
3256;DHT22;1640;48.504;9.224;2024-01-15T08:27:13;0.40;77.10
3256;DHT22;1640;48.504;9.224;2024-01-15T08:29:40;0.40;76.80
3256;DHT22;1640;48.504;9.224;2024-01-15T08:32:08;0.50;77.50
3256;DHT22;1640;48.504;9.224;2024-01-15T08:34:41;0.50;78.10
3256;DHT22;1640;48.504;9.224;2024-01-15T08:37:09;0.60;77.50
3256;DHT22;1640;48.504;9.224;2024-01-15T08:39:36;0.70;77.80
3256;DHT22;1640;48.504;9.224;2024-01-15T08:42:05;0.70;78.10
3256;DHT22;1640;48.504;9.224;2024-01-15T08:44:34;0.70;78.10
3256;DHT22;1640;48.504;9.224;2024-01-15T08:47:01;0.70;77.70
3256;DHT22;1640;48.504;9.224;2024-01-15T08:49:29;0.80;77.90
3256;DHT22;1640;48.504;9.224;2024-01-15T08:51:56;0.90;77.80
3256;DHT22;1640;48.504;9.224;2024-01-15T08:54:24;0.90;78.90
3256;DHT22;1640;48.504;9.224;2024-01-15T08:56:52;0.90;78.50
3256;DHT22;1640;48.504;9.224;2024-01-15T08:59:19;0.90;79.80
3256;DHT22;1640;48.504;9.224;2024-01-15T09:01:52;0.90;79.50
3256;DHT22;1640;48.504;9.224;2024-01-15T09:04:20;0.90;79.10
3256;DHT22;1640;48.504;9.224;2024-01-15T09:06:47;0.90;79.80
3256;DHT22;1640;48.504;9.224;2024-01-15T09:09:15;1.00;80.10
3256;DHT22;1640;48.504;9.224;2024-01-15T09:11:43;1.00;80.10
3256;DHT22;1640;48.504;9.224;2024-01-15T09:14:10;1.10;80.40
3256;DHT22;1640;48.504;9.224;2024-01-15T09:16:39;1.20;80.20
3256;DHT22;1640;48.504;9.224;2024-01-15T09:19:08;1.10;80.50
3256;DHT22;1640;48.504;9.224;2024-01-15T09:21:35;1.20;80.40
3256;DHT22;1640;48.504;9.224;2024-01-15T09:24:03;1.10;80.40
3256;DHT22;1640;48.504;9.224;2024-01-15T09:26:30;1.10;80.80
3256;DHT22;1640;48.504;9.224;2024-01-15T09:28:58;1.10;80.40
3256;DHT22;1640;48.504;9.224;2024-01-15T09:31:25;1.20;80.40
3256;DHT22;1640;48.504;9.224;2024-01-15T09:33:53;1.20;80.50
3256;DHT22;1640;48.504;9.224;2024-01-15T09:36:23;1.30;80.80
3256;DHT22;1640;48.504;9.224;2024-01-15T09:38:51;1.30;80.70
3256;DHT22;1640;48.504;9.224;2024-01-15T09:41:19;1.40;80.40
3256;DHT22;1640;48.504;9.224;2024-01-15T09:43:47;1.30;80.40
3256;DHT22;1640;48.504;9.224;2024-01-15T09:46:15;1.30;80.40
3256;DHT22;1640;48.504;9.224;2024-01-15T09:48:43;1.30;80.50
3256;DHT22;1640;48.504;9.224;2024-01-15T09:51:11;1.20;80.50
3256;DHT22;1640;48.504;9.224;2024-01-15T09:53:41;1.30;80.50
3256;DHT22;1640;48.504;9.224;2024-01-15T09:56:10;1.30;80.70
3256;DHT22;1640;48.504;9.224;2024-01-15T09:58:39;1.50;80.70
3256;DHT22;1640;48.504;9.224;2024-01-15T10:01:08;1.50;80.40
3256;DHT22;1640;48.504;9.224;2024-01-15T10:03:35;1.60;80.20
3256;DHT22;1640;48.504;9.224;2024-01-15T10:06:05;1.60;80.40
3256;DHT22;1640;48.504;9.224;2024-01-15T10:08:34;1.70;80.40
3256;DHT22;1640;48.504;9.224;2024-01-15T10:11:05;1.70;80.40
3256;DHT22;1640;48.504;9.224;2024-01-15T10:13:33;1.70;80.50
3256;DHT22;1640;48.504;9.224;2024-01-15T10:16:01;1.80;80.40
3256;DHT22;1640;48.504;9.224;2024-01-15T10:18:29;1.80;79.20
3256;DHT22;1640;48.504;9.224;2024-01-15T10:20:57;1.90;80.40
3256;DHT22;1640;48.504;9.224;2024-01-15T10:23:25;1.90;80.00
3256;DHT22;1640;48.504;9.224;2024-01-15T10:25:52;1.70;79.80
3256;DHT22;1640;48.504;9.224;2024-01-15T10:28:21;1.80;80.20
3256;DHT22;1640;48.504;9.224;2024-01-15T10:30:52;1.90;80.00
3256;DHT22;1640;48.504;9.224;2024-01-15T10:33:22;1.80;80.00
3256;DHT22;1640;48.504;9.224;2024-01-15T10:35:53;1.90;80.20
3256;DHT22;1640;48.504;9.224;2024-01-15T10:38:21;1.90;80.00
3256;DHT22;1640;48.504;9.224;2024-01-15T10:40:52;2.00;80.00
3256;DHT22;1640;48.504;9.224;2024-01-15T10:43:21;2.10;79.80
3256;DHT22;1640;48.504;9.224;2024-01-15T10:45:49;2.10;79.80
3256;DHT22;1640;48.504;9.224;2024-01-15T10:48:19;2.10;79.80
3256;DHT22;1640;48.504;9.224;2024-01-15T10:50:47;2.10;80.00
3256;DHT22;1640;48.504;9.224;2024-01-15T10:53:15;2.20;80.10
3256;DHT22;1640;48.504;9.224;2024-01-15T10:55:43;2.20;80.00
3256;DHT22;1640;48.504;9.224;2024-01-15T10:58:13;2.20;79.80
3256;DHT22;1640;48.504;9.224;2024-01-15T11:00:43;2.10;79.70
3256;DHT22;1640;48.504;9.224;2024-01-15T11:03:11;2.20;80.00
3256;DHT22;1640;48.504;9.224;2024-01-15T11:05:41;2.10;79.70
3256;DHT22;1640;48.504;9.224;2024-01-15T11:08:09;2.20;80.00
3256;DHT22;1640;48.504;9.224;2024-01-15T11:10:41;2.20;80.00
3256;DHT22;1640;48.504;9.224;2024-01-15T11:13:10;2.10;79.80
3256;DHT22;1640;48.504;9.224;2024-01-15T11:16:01;2.20;80.10
3256;DHT22;1640;48.504;9.224;2024-01-15T11:18:30;2.20;80.00
3256;DHT22;1640;48.504;9.224;2024-01-15T11:21:19;2.20;80.00
3256;DHT22;1640;48.504;9.224;2024-01-15T11:23:49;2.10;79.50
3256;DHT22;1640;48.504;9.224;2024-01-15T11:26:34;2.00;79.80
3256;DHT22;1640;48.504;9.224;2024-01-15T11:29:03;2.00;80.10
3256;DHT22;1640;48.504;9.224;2024-01-15T11:34:56;2.20;80.20
3256;DHT22;1640;48.504;9.224;2024-01-15T11:37:26;2.20;80.20
3256;DHT22;1640;48.504;9.224;2024-01-15T11:39:54;2.10;80.10
3256;DHT22;1640;48.504;9.224;2024-01-15T11:42:23;2.10;80.40
3256;DHT22;1640;48.504;9.224;2024-01-15T11:44:50;2.10;80.10
3256;DHT22;1640;48.504;9.224;2024-01-15T11:50:13;2.00;80.00
3256;DHT22;1640;48.504;9.224;2024-01-15T11:52:49;1.90;79.40
3256;DHT22;1640;48.504;9.224;2024-01-15T11:55:25;1.80;78.10
3256;DHT22;1640;48.504;9.224;2024-01-15T11:57:54;1.70;77.20
3256;DHT22;1640;48.504;9.224;2024-01-15T12:00:22;1.70;73.80
3256;DHT22;1640;48.504;9.224;2024-01-15T12:02:50;1.70;70.90
3256;DHT22;1640;48.504;9.224;2024-01-15T12:05:20;1.70;70.50
3256;DHT22;1640;48.504;9.224;2024-01-15T12:07:48;1.70;71.10
3256;DHT22;1640;48.504;9.224;2024-01-15T12:10:17;1.70;71.80
3256;DHT22;1640;48.504;9.224;2024-01-15T12:12:57;1.90;73.90
3256;DHT22;1640;48.504;9.224;2024-01-15T12:15:26;2.00;69.30
3256;DHT22;1640;48.504;9.224;2024-01-15T12:17:55;2.20;75.20
3256;DHT22;1640;48.504;9.224;2024-01-15T12:20:26;2.20;75.90
3256;DHT22;1640;48.504;9.224;2024-01-15T12:22:54;2.10;75.90
3256;DHT22;1640;48.504;9.224;2024-01-15T12:25:22;2.10;75.60
3256;DHT22;1640;48.504;9.224;2024-01-15T12:27:50;2.20;76.70
3256;DHT22;1640;48.504;9.224;2024-01-15T12:30:18;2.20;76.10
3256;DHT22;1640;48.504;9.224;2024-01-15T12:32:46;2.10;76.10
3256;DHT22;1640;48.504;9.224;2024-01-15T12:35:14;2.00;75.20
3256;DHT22;1640;48.504;9.224;2024-01-15T12:37:44;2.00;74.50
3256;DHT22;1640;48.504;9.224;2024-01-15T12:40:13;2.10;74.60
3256;DHT22;1640;48.504;9.224;2024-01-15T12:42:40;2.10;74.80
3256;DHT22;1640;48.504;9.224;2024-01-15T12:45:09;2.00;75.20
3256;DHT22;1640;48.504;9.224;2024-01-15T12:47:37;2.00;74.80
3256;DHT22;1640;48.504;9.224;2024-01-15T12:50:07;2.00;74.50
3256;DHT22;1640;48.504;9.224;2024-01-15T12:52:34;2.00;73.10
3256;DHT22;1640;48.504;9.224;2024-01-15T12:55:06;2.00;70.20
3256;DHT22;1640;48.504;9.224;2024-01-15T12:57:35;2.00;69.20
3256;DHT22;1640;48.504;9.224;2024-01-15T13:00:03;1.90;68.30
3256;DHT22;1640;48.504;9.224;2024-01-15T13:02:33;1.80;67.30
3256;DHT22;1640;48.504;9.224;2024-01-15T13:05:03;1.80;68.50
3256;DHT22;1640;48.504;9.224;2024-01-15T13:07:31;1.80;68.00
3256;DHT22;1640;48.504;9.224;2024-01-15T13:09:59;1.70;67.80
3256;DHT22;1640;48.504;9.224;2024-01-15T13:12:28;1.70;65.20
3256;DHT22;1640;48.504;9.224;2024-01-15T13:14:55;1.70;59.50
3256;DHT22;1640;48.504;9.224;2024-01-15T13:17:24;1.60;55.40
3256;DHT22;1640;48.504;9.224;2024-01-15T13:19:52;1.70;55.90
3256;DHT22;1640;48.504;9.224;2024-01-15T13:22:19;1.70;56.10
3256;DHT22;1640;48.504;9.224;2024-01-15T13:24:47;1.60;54.00
3256;DHT22;1640;48.504;9.224;2024-01-15T13:27:14;1.60;56.90
3256;DHT22;1640;48.504;9.224;2024-01-15T13:29:44;1.60;54.00
3256;DHT22;1640;48.504;9.224;2024-01-15T13:32:17;1.60;50.20
3256;DHT22;1640;48.504;9.224;2024-01-15T13:34:44;1.60;41.50
3256;DHT22;1640;48.504;9.224;2024-01-15T13:37:12;1.50;26.70
3256;DHT22;1640;48.504;9.224;2024-01-15T13:39:39;1.40;18.20
3256;DHT22;1640;48.504;9.224;2024-01-15T13:42:07;1.30;12.60
3256;DHT22;1640;48.504;9.224;2024-01-15T13:44:49;1.20;14.40
3256;DHT22;1640;48.504;9.224;2024-01-15T13:47:16;1.10;5.50
3256;DHT22;1640;48.504;9.224;2024-01-15T13:49:44;1.00;99.90
3256;DHT22;1640;48.504;9.224;2024-01-15T13:52:16;1.00;99.90
3256;DHT22;1640;48.504;9.224;2024-01-15T13:54:44;0.90;99.90
3256;DHT22;1640;48.504;9.224;2024-01-15T13:57:12;0.90;99.90
3256;DHT22;1640;48.504;9.224;2024-01-15T13:59:39;0.90;99.90
3256;DHT22;1640;48.504;9.224;2024-01-15T14:02:08;1.00;99.90
3256;DHT22;1640;48.504;9.224;2024-01-15T14:04:37;0.90;99.90
3256;DHT22;1640;48.504;9.224;2024-01-15T14:07:04;0.90;99.90
3256;DHT22;1640;48.504;9.224;2024-01-15T14:09:32;0.90;99.90
3256;DHT22;1640;48.504;9.224;2024-01-15T14:11:59;0.90;99.90
3256;DHT22;1640;48.504;9.224;2024-01-15T14:14:27;0.80;99.90
3256;DHT22;1640;48.504;9.224;2024-01-15T14:16:54;0.80;99.90
3256;DHT22;1640;48.504;9.224;2024-01-15T14:19:33;0.70;99.90
3256;DHT22;1640;48.504;9.224;2024-01-15T14:22:02;0.70;99.90
3256;DHT22;1640;48.504;9.224;2024-01-15T14:24:29;0.70;99.90
3256;DHT22;1640;48.504;9.224;2024-01-15T14:26:56;0.60;99.90
3256;DHT22;1640;48.504;9.224;2024-01-15T14:29:24;0.60;99.90
3256;DHT22;1640;48.504;9.224;2024-01-15T14:31:53;0.60;99.90
3256;DHT22;1640;48.504;9.224;2024-01-15T14:34:21;0.60;99.90
3256;DHT22;1640;48.504;9.224;2024-01-15T14:36:51;0.60;99.90
3256;DHT22;1640;48.504;9.224;2024-01-15T14:39:19;0.60;99.90
3256;DHT22;1640;48.504;9.224;2024-01-15T14:41:47;0.60;99.90
3256;DHT22;1640;48.504;9.224;2024-01-15T14:44:15;0.60;99.90
3256;DHT22;1640;48.504;9.224;2024-01-15T14:46:42;0.60;99.90
3256;DHT22;1640;48.504;9.224;2024-01-15T14:49:10;0.60;99.90
3256;DHT22;1640;48.504;9.224;2024-01-15T14:51:37;0.60;99.90
3256;DHT22;1640;48.504;9.224;2024-01-15T14:54:06;0.60;99.90
3256;DHT22;1640;48.504;9.224;2024-01-15T14:56:35;0.60;99.90
3256;DHT22;1640;48.504;9.224;2024-01-15T14:59:02;0.50;99.90
3256;DHT22;1640;48.504;9.224;2024-01-15T15:01:30;0.50;99.90
3256;DHT22;1640;48.504;9.224;2024-01-15T15:03:59;0.50;99.90
3256;DHT22;1640;48.504;9.224;2024-01-15T15:06:30;0.50;99.90
3256;DHT22;1640;48.504;9.224;2024-01-15T15:08:57;0.40;99.90
3256;DHT22;1640;48.504;9.224;2024-01-15T15:11:27;0.30;99.90
3256;DHT22;1640;48.504;9.224;2024-01-15T15:13:54;0.40;99.90
3256;DHT22;1640;48.504;9.224;2024-01-15T15:16:22;0.40;99.90
3256;DHT22;1640;48.504;9.224;2024-01-15T15:18:49;0.40;99.90
3256;DHT22;1640;48.504;9.224;2024-01-15T15:21:17;0.40;99.90
3256;DHT22;1640;48.504;9.224;2024-01-15T15:23:44;0.40;99.90
3256;DHT22;1640;48.504;9.224;2024-01-15T15:26:12;0.40;99.90
3256;DHT22;1640;48.504;9.224;2024-01-15T15:28:41;0.40;99.90
3256;DHT22;1640;48.504;9.224;2024-01-15T15:31:09;0.30;99.90
3256;DHT22;1640;48.504;9.224;2024-01-15T15:33:37;0.30;99.90
3256;DHT22;1640;48.504;9.224;2024-01-15T15:36:05;0.40;99.90
3256;DHT22;1640;48.504;9.224;2024-01-15T15:38:32;0.40;99.90
3256;DHT22;1640;48.504;9.224;2024-01-15T15:41:00;0.40;99.90
3256;DHT22;1640;48.504;9.224;2024-01-15T15:43:28;0.40;99.90
3256;DHT22;1640;48.504;9.224;2024-01-15T15:45:57;0.40;99.90
3256;DHT22;1640;48.504;9.224;2024-01-15T15:48:25;0.30;99.90
3256;DHT22;1640;48.504;9.224;2024-01-15T15:50:53;0.40;99.90
3256;DHT22;1640;48.504;9.224;2024-01-15T15:53:21;0.30;99.90
3256;DHT22;1640;48.504;9.224;2024-01-15T15:55:49;0.30;99.90
3256;DHT22;1640;48.504;9.224;2024-01-15T15:58:16;0.30;99.90
3256;DHT22;1640;48.504;9.224;2024-01-15T16:00:43;0.30;99.90
3256;DHT22;1640;48.504;9.224;2024-01-15T16:03:12;0.30;99.90
3256;DHT22;1640;48.504;9.224;2024-01-15T16:05:40;0.30;99.90
3256;DHT22;1640;48.504;9.224;2024-01-15T16:08:07;0.20;99.90
3256;DHT22;1640;48.504;9.224;2024-01-15T16:10:35;0.30;99.90
3256;DHT22;1640;48.504;9.224;2024-01-15T16:13:02;0.30;99.90
3256;DHT22;1640;48.504;9.224;2024-01-15T16:15:30;0.30;99.90
3256;DHT22;1640;48.504;9.224;2024-01-15T16:17:59;0.30;99.90
3256;DHT22;1640;48.504;9.224;2024-01-15T16:20:28;0.30;99.90
3256;DHT22;1640;48.504;9.224;2024-01-15T16:22:55;0.20;99.90
3256;DHT22;1640;48.504;9.224;2024-01-15T16:25:23;0.20;99.90